createdAt,value
2019-06-07T00:00:32.166Z,17.03
2019-06-07T00:02:41.223Z,16.37
2019-06-07T00:05:09.811Z,15.33
2019-06-07T00:07:36.543Z,15.63
2019-06-07T00:10:04.452Z,15.03
2019-06-07T00:12:30.921Z,14.50
2019-06-07T00:14:57.295Z,19.27
2019-06-07T00:17:23.893Z,15.40
2019-06-07T00:19:50.548Z,15.77
2019-06-07T00:22:30.120Z,18.60
2019-06-07T00:24:45.549Z,15.93
2019-06-07T00:27:22.660Z,17.40
2019-06-07T00:29:49.343Z,17.70
2019-06-07T00:32:21.988Z,15.90
2019-06-07T00:35:05.265Z,16.63
2019-06-07T00:37:31.800Z,16.43
2019-06-07T00:40:13.871Z,16.60
2019-06-07T00:42:26.693Z,16.83
2019-06-07T00:44:53.231Z,17.57
2019-06-07T00:47:24.905Z,16.03
2019-06-07T00:49:48.777Z,17.00
2019-06-07T00:53:10.722Z,17.03
2019-06-07T00:54:43.677Z,15.43
2019-06-07T00:57:10.045Z,16.80
2019-06-07T00:59:36.512Z,16.07
2019-06-07T01:02:05.547Z,25.47
2019-06-07T01:04:32.231Z,16.70
2019-06-07T01:06:59.055Z,15.87
2019-06-07T01:09:25.732Z,17.80
2019-06-07T01:11:52.297Z,15.67
2019-06-07T01:14:21.975Z,16.57
2019-06-07T01:16:57.430Z,17.43
2019-06-07T01:19:16.336Z,17.10
2019-06-07T01:21:42.852Z,17.20
2019-06-07T01:24:12.273Z,16.73
2019-06-07T01:26:38.217Z,15.60
2019-06-07T01:29:04.832Z,17.13
2019-06-07T01:31:31.932Z,15.97
2019-06-07T01:33:58.711Z,17.10
2019-06-07T01:36:31.097Z,16.13
2019-06-07T01:38:57.954Z,16.43
2019-06-07T01:41:25.904Z,16.90
2019-06-07T01:43:52.522Z,15.60
2019-06-07T01:46:20.595Z,16.33
2019-06-07T01:48:49.922Z,15.37
2019-06-07T01:51:15.435Z,16.77
2019-06-07T01:53:41.977Z,15.80
2019-06-07T01:56:08.466Z,16.13
2019-06-07T01:58:35.100Z,18.80
2019-06-07T02:01:01.565Z,16.73
2019-06-07T02:03:32.186Z,15.87
2019-06-07T02:05:56.791Z,16.70
2019-06-07T02:08:24.492Z,15.67
2019-06-07T02:10:51.660Z,18.23
2019-06-07T02:13:18.792Z,16.40
2019-06-07T02:15:46.546Z,15.00
2019-06-07T02:18:13.161Z,18.37
2019-06-07T02:20:39.550Z,16.77
2019-06-07T02:23:06.208Z,16.53
2019-06-07T02:25:43.800Z,17.00
2019-06-07T02:28:25.985Z,17.43
2019-06-07T02:30:47.640Z,16.67
2019-06-07T02:32:59.470Z,17.60
2019-06-07T02:35:33.001Z,16.63
2019-06-07T02:37:54.379Z,16.33
2019-06-07T02:40:21.972Z,16.50
2019-06-07T02:42:48.666Z,16.33
2019-06-07T02:45:15.297Z,16.53
2019-06-07T02:47:43.499Z,17.00
2019-06-07T02:50:10.679Z,16.57
2019-06-07T02:52:40.586Z,20.73
2019-06-07T02:55:06.374Z,18.00
2019-06-07T02:57:36.946Z,17.53
2019-06-07T03:00:17.039Z,16.13
2019-06-07T03:02:33.273Z,16.93
2019-06-07T03:04:58.157Z,15.80
2019-06-07T03:07:28.307Z,14.80
2019-06-07T03:10:00.323Z,14.80
2019-06-07T03:12:30.918Z,14.27
2019-06-07T03:14:57.978Z,15.40
2019-06-07T03:17:40.290Z,15.33
2019-06-07T03:20:08.579Z,16.43
2019-06-07T03:22:41.587Z,16.70
2019-06-07T03:25:08.468Z,16.40
2019-06-07T03:27:43.967Z,16.80
2019-06-07T03:30:35.818Z,18.87
2019-06-07T03:32:42.955Z,15.57
2019-06-07T03:35:04.737Z,16.70
2019-06-07T03:37:39.074Z,16.00
2019-06-07T03:40:00.115Z,15.33
2019-06-07T03:42:39.702Z,17.23
2019-06-07T03:45:15.669Z,16.03
2019-06-07T03:47:43.195Z,15.70
2019-06-07T03:50:09.911Z,15.70
2019-06-07T03:52:40.599Z,15.67
2019-06-07T03:55:05.239Z,15.17
2019-06-07T03:58:29.380Z,15.63
2019-06-07T04:00:05.689Z,15.40
2019-06-07T04:02:33.918Z,15.37
2019-06-07T04:05:06.010Z,16.20
2019-06-07T04:07:44.256Z,14.37
2019-06-07T04:10:11.132Z,14.23
2019-06-07T04:12:43.866Z,16.43
2019-06-07T04:15:10.944Z,14.33
2019-06-07T04:17:44.608Z,14.63
2019-06-07T04:20:06.114Z,16.80
2019-06-07T04:22:41.945Z,15.70
2019-06-07T04:25:08.366Z,16.50
2019-06-07T04:27:37.629Z,14.97
2019-06-07T04:30:08.070Z,16.07
2019-06-07T04:32:44.702Z,14.63
2019-06-07T04:35:09.424Z,14.10
2019-06-07T04:37:40.660Z,16.40
2019-06-07T04:40:05.581Z,13.50
2019-06-07T04:42:38.120Z,13.00
2019-06-07T04:45:04.642Z,12.83
2019-06-07T04:47:33.863Z,14.77
2019-06-07T04:50:06.539Z,12.67
2019-06-07T04:52:36.012Z,12.80
2019-06-07T04:55:01.880Z,14.63
2019-06-07T04:57:34.867Z,13.23
2019-06-07T05:00:32.980Z,12.63
2019-06-07T05:02:32.015Z,15.57
2019-06-07T05:04:58.870Z,11.63
2019-06-07T05:07:30.936Z,11.20
2019-06-07T05:09:57.120Z,12.70
2019-06-07T05:12:23.576Z,14.47
2019-06-07T05:14:50.425Z,10.30
2019-06-07T05:17:17.054Z,10.43
2019-06-07T05:19:44.570Z,9.87
2019-06-07T05:22:16.600Z,12.73
2019-06-07T05:24:53.412Z,16.10
2019-06-07T05:27:19.945Z,13.50
2019-06-07T05:30:09.050Z,9.77
2019-06-07T05:32:14.725Z,12.43
2019-06-07T05:34:47.236Z,11.30
2019-06-07T05:37:19.231Z,9.57
2019-06-07T05:39:46.663Z,13.30
2019-06-07T05:42:13.368Z,11.17
2019-06-07T05:44:44.087Z,10.70
2019-06-07T05:47:08.361Z,8.30
2019-06-07T05:49:37.813Z,9.40
2019-06-07T05:52:03.184Z,9.47
2019-06-07T05:54:29.602Z,11.17
2019-06-07T05:56:56.040Z,11.80
2019-06-07T05:59:22.405Z,10.50
2019-06-07T06:02:02.636Z,10.60
2019-06-07T06:04:22.226Z,8.57
2019-06-07T06:06:48.822Z,9.50
2019-06-07T06:09:15.268Z,11.73
2019-06-07T06:11:58.656Z,10.37
2019-06-07T06:14:12.331Z,9.43
2019-06-07T06:16:50.064Z,10.67
2019-06-07T06:19:21.971Z,11.57
2019-06-07T06:21:48.738Z,12.70
2019-06-07T06:24:15.261Z,15.97
2019-06-07T06:26:49.918Z,10.47
2019-06-07T06:29:10.342Z,9.47
2019-06-07T06:31:37.917Z,9.53
2019-06-07T06:34:05.180Z,11.90
2019-06-07T06:36:31.698Z,15.40
2019-06-07T06:38:58.096Z,8.70
2019-06-07T06:41:46.177Z,10.17
2019-06-07T06:44:13.386Z,12.17
2019-06-07T06:46:44.736Z,10.30
2019-06-07T06:49:08.005Z,12.13
2019-06-07T06:51:34.530Z,8.97
2019-06-07T06:54:01.051Z,8.47
2019-06-07T06:56:27.732Z,8.93
2019-06-07T07:01:22.756Z,9.50
2019-06-07T07:04:06.937Z,7.20
2019-06-07T07:06:26.409Z,9.07
2019-06-07T07:08:52.787Z,10.77
2019-06-07T07:11:23.127Z,8.87
2019-06-07T07:13:49.879Z,11.07
2019-06-07T07:16:15.121Z,8.27
2019-06-07T07:18:41.813Z,7.10
2019-06-07T07:21:08.235Z,12.17
2019-06-07T07:23:34.624Z,5.93
2019-06-07T07:26:06.429Z,12.47
2019-06-07T07:28:32.963Z,7.87
2019-06-07T07:31:04.785Z,7.23
2019-06-07T07:34:20.699Z,5.60
2019-06-07T07:38:28.565Z,11.48
2019-06-07T07:41:15.213Z,10.53
2019-06-07T07:43:28.773Z,5.47
2019-06-07T07:46:02.179Z,7.93
2019-06-07T07:48:24.364Z,11.60
2019-06-07T07:50:56.228Z,7.90
2019-06-07T07:53:19.240Z,8.07
2019-06-07T07:55:49.498Z,8.00
2019-06-07T07:58:14.598Z,7.57
2019-06-07T08:01:07.710Z,6.17
2019-06-07T08:03:10.708Z,15.70
2019-06-07T08:05:42.940Z,7.77
2019-06-07T08:08:07.913Z,6.40
2019-06-07T08:10:33.936Z,5.57
2019-06-07T08:13:22.672Z,6.33
2019-06-07T08:15:30.049Z,7.07
2019-06-07T08:18:01.203Z,6.27
2019-06-07T08:20:25.087Z,5.60
2019-06-07T08:22:55.490Z,7.57
2019-06-07T08:25:21.501Z,4.30
2019-06-07T08:27:49.504Z,7.00
2019-06-07T08:30:47.280Z,5.87
2019-06-07T08:32:50.946Z,7.13
2019-06-07T08:36:02.411Z,3.90
2019-06-07T08:38:15.002Z,4.00
2019-06-07T08:40:12.790Z,4.87
2019-06-07T08:43:10.268Z,6.37
2019-06-07T08:45:18.619Z,6.93
2019-06-07T08:47:45.185Z,6.17
2019-06-07T08:50:12.507Z,5.10
2019-06-07T08:52:39.094Z,6.30
2019-06-07T08:55:06.622Z,5.22
2019-06-07T08:57:34.752Z,7.15
2019-06-07T09:00:16.168Z,6.78
2019-06-07T09:02:29.631Z,6.35
2019-06-07T09:04:59.211Z,7.17
2019-06-07T09:07:24.382Z,5.30
2019-06-07T09:10:12.820Z,6.58
2019-06-07T09:12:38.375Z,6.73
2019-06-07T09:15:20.894Z,6.07
2019-06-07T09:17:34.666Z,5.00
2019-06-07T09:20:21.450Z,8.03
2019-06-07T09:22:34.633Z,3.93
2019-06-07T09:25:09.517Z,5.67
2019-06-07T09:27:29.682Z,4.10
2019-06-07T09:30:07.629Z,4.93
2019-06-07T09:32:29.675Z,5.35
2019-06-07T09:35:11.147Z,7.95
2019-06-07T09:38:04.228Z,6.40
2019-06-07T09:40:21.735Z,5.25
2019-06-07T09:42:35.392Z,5.47
2019-06-07T09:45:04.360Z,6.67
2019-06-07T09:47:32.934Z,5.03
2019-06-07T09:50:04.115Z,8.43
2019-06-07T09:52:57.791Z,4.70
2019-06-07T09:55:22.984Z,9.35
2019-06-07T09:57:38.840Z,5.92
2019-06-07T10:00:38.709Z,5.47
2019-06-07T10:02:42.890Z,4.45
2019-06-07T10:05:14.098Z,6.08
2019-06-07T10:07:51.436Z,8.30
2019-06-07T10:12:36.309Z,5.50
2019-06-07T10:15:05.366Z,4.35
2019-06-07T10:17:32.124Z,5.25
2019-06-07T10:20:00.452Z,8.00
2019-06-07T10:22:26.952Z,9.33
2019-06-07T10:24:59.688Z,6.12
2019-06-07T10:27:31.363Z,6.33
2019-06-07T10:29:57.865Z,4.58
2019-06-07T10:32:24.351Z,5.03
2019-06-07T10:34:50.881Z,4.42
2019-06-07T10:37:17.292Z,4.75
2019-06-07T10:39:48.698Z,5.78
2019-06-07T10:42:12.126Z,5.10
2019-06-07T10:44:38.663Z,6.72
2019-06-07T10:47:06.004Z,6.67
2019-06-07T10:49:37.604Z,6.30
2019-06-07T10:52:06.660Z,7.05
2019-06-07T10:54:32.428Z,5.85
2019-06-07T10:56:59.037Z,9.68
2019-06-07T10:59:25.639Z,7.17
2019-06-07T11:01:52.143Z,5.83
2019-06-07T11:04:18.753Z,6.08
2019-06-07T11:06:45.952Z,6.92
2019-06-07T11:09:12.593Z,7.25
2019-06-07T11:11:58.969Z,11.83
2019-06-07T11:14:25.483Z,7.17
2019-06-07T11:16:51.924Z,8.43
2019-06-07T11:19:19.726Z,8.15
2019-06-07T11:21:46.494Z,8.43
2019-06-07T11:24:14.315Z,6.90
2019-06-07T11:26:40.900Z,7.80
2019-06-07T11:29:08.959Z,9.23
2019-06-07T11:31:40.790Z,6.60
2019-06-07T11:34:12.498Z,9.23
2019-06-07T11:36:39.013Z,6.22
2019-06-07T11:39:06.565Z,7.15
2019-06-07T11:41:32.853Z,6.42
2019-06-07T11:43:59.349Z,9.13
2019-06-07T11:46:26.056Z,8.98
2019-06-07T11:48:52.614Z,13.47
2019-06-07T11:51:19.016Z,9.00
2019-06-07T11:53:50.555Z,10.63
2019-06-07T11:56:36.778Z,7.65
2019-06-07T11:59:03.463Z,9.58
2019-06-07T12:01:30.031Z,11.08
2019-06-07T12:03:58.846Z,7.40
2019-06-07T12:06:24.968Z,7.67
2019-06-07T12:08:51.505Z,7.97
2019-06-07T12:11:22.951Z,9.17
2019-06-07T12:13:50.098Z,11.00
2019-06-07T12:16:21.751Z,14.33
2019-06-07T12:18:48.114Z,8.80
2019-06-07T12:21:15.764Z,7.15
2019-06-07T12:23:47.393Z,7.28
2019-06-07T12:26:14.418Z,7.42
2019-06-07T12:28:41.132Z,10.53
2019-06-07T12:31:12.826Z,8.43
2019-06-07T12:33:39.220Z,7.45
2019-06-07T12:36:05.613Z,7.35
2019-06-07T12:38:32.090Z,10.05
2019-06-07T12:40:58.602Z,10.68
2019-06-07T12:43:30.106Z,8.40
2019-06-07T12:45:56.625Z,7.57
2019-06-07T12:48:25.918Z,7.55
2019-06-07T12:50:51.556Z,7.17
2019-06-07T12:53:18.045Z,8.83
2019-06-07T12:55:45.480Z,7.30
2019-06-07T12:58:22.018Z,8.33
2019-06-07T13:00:45.346Z,9.33
2019-06-07T13:03:11.929Z,6.40
2019-06-07T13:05:38.540Z,8.87
2019-06-07T13:08:05.241Z,8.83
2019-06-07T13:10:31.820Z,6.70
2019-06-07T13:12:58.387Z,9.77
2019-06-07T13:15:26.041Z,6.97
2019-06-07T13:17:52.710Z,8.33
2019-06-07T13:20:20.451Z,9.50
2019-06-07T13:22:47.024Z,9.73
2019-06-07T13:25:14.026Z,7.43
2019-06-07T13:27:40.533Z,7.17
2019-06-07T13:30:10.473Z,7.17
2019-06-07T13:32:36.579Z,7.40
2019-06-07T13:35:11.021Z,8.97
2019-06-07T13:37:37.460Z,7.00
2019-06-07T13:40:09.658Z,12.13
2019-06-07T13:42:36.250Z,8.33
2019-06-07T13:45:05.134Z,10.93
2019-06-07T13:47:31.643Z,8.20
2019-06-07T13:49:58.274Z,9.80
2019-06-07T13:52:24.677Z,8.27
2019-06-07T13:54:51.053Z,9.67
2019-06-07T13:57:17.912Z,10.30
2019-06-07T13:59:45.479Z,8.60
2019-06-07T14:02:11.896Z,9.83
2019-06-07T14:04:38.355Z,9.30
2019-06-07T14:07:04.980Z,9.13
2019-06-07T14:09:31.758Z,7.63
2019-06-07T14:11:58.267Z,7.40
2019-06-07T14:14:27.005Z,7.13
2019-06-07T14:16:53.189Z,7.60
2019-06-07T14:19:20.418Z,7.43
2019-06-07T14:21:46.877Z,6.97
2019-06-07T14:24:13.620Z,12.00
2019-06-07T14:26:41.977Z,7.37
2019-06-07T14:29:08.414Z,7.73
2019-06-07T14:31:35.096Z,7.50
2019-06-07T14:34:02.309Z,8.00
2019-06-07T14:36:29.129Z,8.90
2019-06-07T14:38:55.498Z,8.33
2019-06-07T14:41:23.169Z,8.17
2019-06-07T14:43:49.762Z,9.03
2019-06-07T14:46:16.150Z,11.63
2019-06-07T14:48:42.645Z,7.47
2019-06-07T14:51:09.319Z,12.47
2019-06-07T14:53:36.027Z,8.13
2019-06-07T14:56:02.647Z,9.10
2019-06-07T14:58:29.429Z,7.67
2019-06-07T15:00:56.111Z,7.80
2019-06-07T15:03:22.651Z,14.90
2019-06-07T15:05:49.359Z,8.57
2019-06-07T15:08:16.059Z,6.93
2019-06-07T15:10:47.580Z,7.13
2019-06-07T15:13:14.064Z,11.93
2019-06-07T15:15:40.892Z,9.80
2019-06-07T15:18:07.470Z,7.03
2019-06-07T15:20:34.219Z,8.20
2019-06-07T15:23:00.714Z,15.23
2019-06-07T15:25:27.119Z,8.73
2019-06-07T15:27:53.674Z,14.27
2019-06-07T15:30:20.278Z,8.30
2019-06-07T15:32:51.777Z,19.10
2019-06-07T15:35:23.457Z,11.73
2019-06-07T15:37:55.140Z,12.07
2019-06-07T15:40:21.686Z,8.20
2019-06-07T15:42:53.475Z,9.80
2019-06-07T15:45:24.970Z,8.50
2019-06-07T15:47:51.451Z,10.80
2019-06-07T15:50:18.110Z,7.70
2019-06-07T15:52:44.635Z,8.20
2019-06-07T15:55:26.163Z,11.27
2019-06-07T15:58:02.757Z,9.00
2019-06-07T16:00:31.180Z,12.87
2019-06-07T16:02:59.012Z,16.17
2019-06-07T16:05:36.415Z,12.97
2019-06-07T16:08:07.914Z,9.20
2019-06-07T16:10:40.856Z,11.77
2019-06-07T16:13:07.349Z,8.60
2019-06-07T16:15:49.007Z,8.60
2019-06-07T16:18:15.552Z,8.53
2019-06-07T16:20:41.891Z,10.33
2019-06-07T16:23:08.380Z,7.97
2019-06-07T16:25:35.799Z,8.30
2019-06-07T16:28:02.358Z,8.90
2019-06-07T16:30:28.932Z,7.70
2019-06-07T16:32:55.598Z,9.23
2019-06-07T16:35:22.102Z,8.80
2019-06-07T16:37:51.658Z,10.03
2019-06-07T16:40:16.875Z,10.97
2019-06-07T16:42:45.267Z,8.90
2019-06-07T16:45:12.390Z,9.30
2019-06-07T16:47:41.203Z,10.50
2019-06-07T16:50:08.259Z,10.67
2019-06-07T16:52:34.737Z,8.90
2019-06-07T16:55:01.245Z,8.57
2019-06-07T16:57:27.806Z,9.30
2019-06-07T16:59:59.428Z,9.73
2019-06-07T17:02:26.070Z,9.83
2019-06-07T17:04:57.498Z,9.77
2019-06-07T17:07:34.685Z,9.47
2019-06-07T17:10:02.857Z,9.07
2019-06-07T17:12:29.475Z,9.37
2019-06-07T17:14:55.840Z,10.83
2019-06-07T17:17:22.424Z,10.37
2019-06-07T17:19:49.248Z,9.47
2019-06-07T17:22:15.888Z,10.27
2019-06-07T17:24:43.367Z,9.33
2019-06-07T17:27:14.959Z,10.17
2019-06-07T17:29:42.012Z,9.27
2019-06-07T17:32:08.421Z,9.27
2019-06-07T17:34:34.954Z,10.37
2019-06-07T17:37:01.335Z,10.60
2019-06-07T17:39:27.701Z,9.33
2019-06-07T17:42:01.717Z,10.23
2019-06-07T17:44:22.471Z,11.30
2019-06-07T17:46:49.912Z,10.17
2019-06-07T17:49:16.459Z,9.40
2019-06-07T17:51:53.005Z,11.07
2019-06-07T17:54:19.370Z,9.87
2019-06-07T17:56:46.265Z,9.60
2019-06-07T17:59:12.720Z,10.87
2019-06-07T18:01:41.724Z,10.77
2019-06-07T18:04:07.364Z,11.93
2019-06-07T18:06:34.232Z,10.80
2019-06-07T18:09:00.922Z,10.50
2019-06-07T18:11:27.409Z,10.13
2019-06-07T18:14:09.675Z,10.17
2019-06-07T18:16:22.401Z,13.87
2019-06-07T18:18:48.889Z,10.77
2019-06-07T18:21:15.345Z,11.67
2019-06-07T18:23:41.825Z,10.40
2019-06-07T18:26:08.429Z,11.23
2019-06-07T18:28:34.903Z,11.07
2019-06-07T18:31:01.386Z,10.73
2019-06-07T18:33:27.799Z,11.60
2019-06-07T18:35:59.535Z,11.50
2019-06-07T18:38:25.881Z,13.63
2019-06-07T18:40:53.287Z,11.07
2019-06-07T18:43:19.693Z,11.67
2019-06-07T18:45:47.358Z,14.90
2019-06-07T18:48:18.879Z,11.63
2019-06-07T18:50:46.420Z,14.13
2019-06-07T18:53:13.028Z,11.70
2019-06-07T18:55:39.643Z,11.90
2019-06-07T18:58:06.158Z,11.57
2019-06-07T19:00:32.970Z,15.30
2019-06-07T19:02:59.361Z,11.93
2019-06-07T19:05:30.887Z,12.03
2019-06-07T19:07:59.652Z,11.70
2019-06-07T19:10:35.738Z,13.93
2019-06-07T19:13:02.189Z,12.00
2019-06-07T19:15:29.500Z,12.17
2019-06-07T19:18:01.133Z,12.63
2019-06-07T19:20:27.636Z,13.77
2019-06-07T19:22:54.243Z,12.07
2019-06-07T19:25:20.671Z,14.70
2019-06-07T19:27:52.685Z,13.53
2019-06-07T19:30:20.660Z,11.87
2019-06-07T19:32:49.579Z,12.53
2019-06-07T19:35:25.702Z,12.43
2019-06-07T19:37:52.201Z,12.47
2019-06-07T19:40:28.850Z,24.10
2019-06-07T19:42:56.448Z,14.47
2019-06-07T19:45:31.544Z,13.73
2019-06-07T19:47:52.403Z,12.37
2019-06-07T19:50:20.128Z,12.73
2019-06-07T19:52:46.603Z,16.97
2019-06-07T19:55:14.923Z,14.20
2019-06-07T19:57:41.387Z,13.90
2019-06-07T20:00:14.950Z,15.80
2019-06-07T20:02:40.217Z,13.83
2019-06-07T20:05:12.452Z,12.83
2019-06-07T20:07:43.988Z,13.50
2019-06-07T20:10:11.352Z,19.07
2019-06-07T20:12:45.839Z,16.60
2019-06-07T20:15:28.383Z,13.93
2019-06-07T20:17:40.790Z,13.90
2019-06-07T20:20:13.102Z,15.67
2019-06-07T20:22:39.590Z,16.33
2019-06-07T20:25:09.218Z,13.63
2019-06-07T20:27:35.802Z,14.13
2019-06-07T20:30:05.333Z,13.40
2019-06-07T20:32:32.907Z,13.23
2019-06-07T20:34:59.655Z,14.83
2019-06-07T20:37:36.274Z,15.13
2019-06-07T20:40:22.812Z,13.90
2019-06-07T20:42:57.398Z,14.93
2019-06-07T20:45:33.012Z,13.80
2019-06-07T20:47:52.616Z,16.43
2019-06-07T20:50:19.197Z,14.03
2019-06-07T20:52:45.668Z,13.83
2019-06-07T20:55:12.446Z,15.70
2019-06-07T20:57:39.039Z,14.10
2019-06-07T21:00:14.306Z,15.40
2019-06-07T21:02:36.366Z,17.17
2019-06-07T21:05:05.263Z,15.23
2019-06-07T21:07:32.012Z,14.83
2019-06-07T21:09:59.448Z,14.40
2019-06-07T21:12:25.960Z,14.80
2019-06-07T21:14:52.335Z,16.47
2019-06-07T21:17:18.903Z,17.37
2019-06-07T21:19:50.510Z,14.30
2019-06-07T21:22:17.492Z,16.20
2019-06-07T21:24:44.127Z,15.87
2019-06-07T21:27:15.679Z,16.37
2019-06-07T21:29:42.626Z,17.03
2019-06-07T21:32:09.622Z,16.80
2019-06-07T21:34:36.259Z,17.47
2019-06-07T21:37:03.788Z,16.20
2019-06-07T21:39:30.140Z,16.13
2019-06-07T21:41:56.597Z,30.80
2019-06-07T21:44:23.235Z,16.47
2019-06-07T21:46:49.884Z,15.17
2019-06-07T21:49:16.463Z,22.73
2019-06-07T21:51:43.198Z,17.37
2019-06-07T21:54:12.985Z,15.53
2019-06-07T21:56:37.792Z,16.10
2019-06-07T21:59:05.076Z,15.43
2019-06-07T22:01:33.445Z,21.40
2019-06-07T22:03:59.967Z,20.03
2019-06-07T22:06:26.474Z,15.10
2019-06-07T22:08:53.010Z,15.53
2019-06-07T22:11:19.649Z,18.43
2019-06-07T22:13:46.504Z,15.97
2019-06-07T22:16:26.591Z,15.87
2019-06-07T22:18:41.574Z,16.47
2019-06-07T22:21:08.536Z,15.03
2019-06-07T22:23:35.162Z,13.83
2019-06-07T22:26:01.555Z,15.03
2019-06-07T22:28:28.435Z,16.67
2019-06-07T22:30:55.004Z,15.17
2019-06-07T22:33:21.489Z,16.63
2019-06-07T22:35:48.040Z,15.00
2019-06-07T22:38:14.614Z,15.27
2019-06-07T22:40:41.093Z,13.77
2019-06-07T22:43:07.578Z,14.67
2019-06-07T22:45:34.186Z,18.20
2019-06-07T22:48:00.862Z,15.27
2019-06-07T22:50:27.710Z,15.43
2019-06-07T22:52:54.167Z,15.30
2019-06-07T22:55:20.716Z,14.87
2019-06-07T22:57:59.190Z,14.83
2019-06-07T23:00:28.160Z,15.07
2019-06-07T23:02:54.858Z,15.43
2019-06-07T23:05:21.464Z,17.43
2019-06-07T23:07:48.009Z,16.27
2019-06-07T23:10:15.454Z,16.53
2019-06-07T23:12:41.833Z,16.47
2019-06-07T23:15:09.337Z,14.83
2019-06-07T23:17:35.985Z,16.90
2019-06-07T23:20:09.673Z,18.27
2019-06-07T23:22:41.411Z,16.63
2019-06-07T23:25:27.844Z,15.77
2019-06-07T23:27:54.425Z,16.27
2019-06-07T23:30:21.599Z,15.93
2019-06-07T23:32:48.378Z,16.53
2019-06-07T23:35:15.035Z,14.60
2019-06-07T23:37:41.529Z,17.17
2019-06-07T23:40:08.528Z,15.37
2019-06-07T23:42:35.492Z,14.13
2019-06-07T23:45:02.195Z,15.20
2019-06-07T23:47:28.882Z,15.40
2019-06-07T23:49:55.373Z,14.70
2019-06-07T23:52:22.068Z,15.43
2019-06-07T23:54:48.590Z,17.53
2019-06-07T23:57:15.992Z,15.90
2019-06-07T23:59:42.863Z,15.50
